createdAt,value
2023-04-17T00:01:44.541Z,71.25
2023-04-17T00:04:12.932Z,81.38
2023-04-17T00:06:44.807Z,79.18
2023-04-17T00:09:12.479Z,83.07
2023-04-17T00:11:39.605Z,80.43
2023-04-17T00:14:07.060Z,77.43
2023-04-17T00:16:34.228Z,77.15
2023-04-17T00:19:01.872Z,76.45
2023-04-17T00:21:29.731Z,85.13
2023-04-17T00:23:57.246Z,79.00
2023-04-17T00:26:24.451Z,80.88
2023-04-17T00:28:52.160Z,74.15
2023-04-17T00:31:19.181Z,71.82
2023-04-17T00:33:46.710Z,71.75
2023-04-17T00:36:15.179Z,77.53
2023-04-17T00:38:42.614Z,76.68
2023-04-17T00:41:09.350Z,76.07
2023-04-17T00:43:36.919Z,72.75
2023-04-17T00:46:05.059Z,75.40
2023-04-17T00:48:34.058Z,71.35
2023-04-17T00:51:02.273Z,73.72
2023-04-17T00:53:33.984Z,76.32
2023-04-17T00:56:03.268Z,70.82
2023-04-17T00:58:31.126Z,70.97
2023-04-17T01:00:58.018Z,71.93
2023-04-17T01:03:25.638Z,62.47
2023-04-17T01:05:52.739Z,64.45
2023-04-17T01:08:20.135Z,79.22
2023-04-17T01:10:47.351Z,71.95
2023-04-17T01:13:14.808Z,80.25
2023-04-17T01:15:42.892Z,71.55
2023-04-17T01:18:10.344Z,71.68
2023-04-17T01:20:37.488Z,74.97
2023-04-17T01:23:04.736Z,66.78
2023-04-17T01:25:31.388Z,73.57
2023-04-17T01:27:58.702Z,73.40
2023-04-17T01:30:27.065Z,77.78
2023-04-17T01:33:03.449Z,65.38
2023-04-17T01:35:30.165Z,69.00
2023-04-17T01:37:58.018Z,73.10
2023-04-17T01:40:24.617Z,86.93
2023-04-17T01:42:51.859Z,83.07
2023-04-17T01:45:18.728Z,77.72
2023-04-17T01:47:46.163Z,73.15
2023-04-17T01:50:13.310Z,75.15
2023-04-17T01:52:40.717Z,73.15
2023-04-17T01:55:08.692Z,74.00
2023-04-17T01:57:35.951Z,79.10
2023-04-17T02:00:06.995Z,85.07
2023-04-17T02:02:39.685Z,79.78
2023-04-17T02:05:07.145Z,79.03
2023-04-17T02:07:34.341Z,82.72
2023-04-17T02:10:01.049Z,87.43
2023-04-17T02:12:28.320Z,84.32
2023-04-17T02:14:54.931Z,85.47
2023-04-17T02:17:22.162Z,81.32
2023-04-17T02:19:48.790Z,86.05
2023-04-17T02:22:16.046Z,88.43
2023-04-17T02:24:42.932Z,88.20
2023-04-17T02:27:11.131Z,91.90
2023-04-17T02:29:37.778Z,94.97
2023-04-17T02:32:05.096Z,96.25
2023-04-17T02:34:32.042Z,89.80
2023-04-17T02:36:59.475Z,94.07
2023-04-17T02:39:27.101Z,96.25
2023-04-17T02:41:54.473Z,106.78
2023-04-17T02:44:21.073Z,96.60
2023-04-17T02:46:48.339Z,100.53
2023-04-17T02:49:15.417Z,100.43
2023-04-17T02:51:42.827Z,93.95
2023-04-17T02:54:09.568Z,107.13
2023-04-17T02:56:36.552Z,97.13
2023-04-17T02:59:03.177Z,97.10
2023-04-17T03:01:30.895Z,98.40
2023-04-17T03:03:57.777Z,101.10
2023-04-17T03:06:25.175Z,117.82
2023-04-17T03:08:51.851Z,119.53
2023-04-17T03:11:19.148Z,110.25
2023-04-17T03:13:46.080Z,105.28
2023-04-17T03:16:14.103Z,105.63
2023-04-17T03:18:41.944Z,110.07
2023-04-17T03:21:09.670Z,121.00
2023-04-17T03:23:36.726Z,109.60
2023-04-17T03:26:06.216Z,122.57
2023-04-17T03:28:33.698Z,114.32
2023-04-17T03:31:02.221Z,126.38
2023-04-17T03:33:31.188Z,109.97
2023-04-17T03:35:58.850Z,112.72
2023-04-17T03:38:25.971Z,116.85
2023-04-17T03:40:54.319Z,118.10
2023-04-17T03:43:23.338Z,114.35
2023-04-17T03:45:51.434Z,119.63
2023-04-17T03:48:18.535Z,115.47
2023-04-17T03:50:48.393Z,116.22
2023-04-17T03:53:15.358Z,123.63
2023-04-17T03:55:42.816Z,116.03
2023-04-17T03:58:15.376Z,113.72
2023-04-17T04:00:42.802Z,120.30
2023-04-17T04:03:11.034Z,123.38
2023-04-17T04:05:41.741Z,126.38
2023-04-17T04:08:10.519Z,119.95
2023-04-17T04:10:46.258Z,124.63
2023-04-17T04:13:18.201Z,124.90
2023-04-17T04:15:51.711Z,126.13
2023-04-17T04:18:20.556Z,130.23
2023-04-17T04:20:48.559Z,135.65
2023-04-17T04:23:21.110Z,127.30
2023-04-17T04:25:49.986Z,128.35
2023-04-17T04:28:27.867Z,126.43
2023-04-17T04:30:55.377Z,133.52
2023-04-17T04:33:27.540Z,129.02
2023-04-17T04:35:56.327Z,131.25
2023-04-17T04:38:29.980Z,145.40
2023-04-17T04:41:06.573Z,125.63
2023-04-17T04:43:34.119Z,128.18
2023-04-17T04:46:03.974Z,125.15
2023-04-17T04:48:34.361Z,124.00
2023-04-17T04:51:01.747Z,139.57
2023-04-17T04:53:29.401Z,124.75
2023-04-17T04:55:58.304Z,130.75
2023-04-17T04:58:26.279Z,124.80
2023-04-17T05:00:56.578Z,129.18
2023-04-17T05:03:30.382Z,133.55
2023-04-17T05:05:58.897Z,127.40
2023-04-17T05:08:31.162Z,126.13
2023-04-17T05:11:06.387Z,119.88
2023-04-17T05:13:33.511Z,127.60
2023-04-17T05:16:01.962Z,127.10
2023-04-17T05:18:29.765Z,124.97
2023-04-17T05:20:56.798Z,130.50
2023-04-17T05:23:25.602Z,119.60
2023-04-17T05:25:52.870Z,121.38
2023-04-17T05:28:19.627Z,119.85
2023-04-17T05:30:48.921Z,118.47
2023-04-17T05:33:21.272Z,121.93
2023-04-17T05:35:54.070Z,119.32
2023-04-17T05:38:22.740Z,116.45
2023-04-17T05:40:50.034Z,118.90
2023-04-17T05:43:16.629Z,124.75
2023-04-17T05:45:44.999Z,119.57
2023-04-17T05:48:11.731Z,125.65
2023-04-17T05:50:39.140Z,129.23
2023-04-17T05:53:07.323Z,136.57
2023-04-17T05:55:39.855Z,126.07
2023-04-17T05:58:23.194Z,124.13
2023-04-17T06:00:53.340Z,135.13
2023-04-17T06:03:21.050Z,126.28
2023-04-17T06:05:53.992Z,120.70
2023-04-17T06:08:20.730Z,129.65
2023-04-17T06:10:50.337Z,133.50
2023-04-17T06:13:17.314Z,124.97
2023-04-17T06:15:47.713Z,127.55
2023-04-17T06:18:16.001Z,118.43
2023-04-17T06:20:43.941Z,117.75
2023-04-17T06:23:10.557Z,123.82
2023-04-17T06:25:37.988Z,125.78
2023-04-17T06:28:04.889Z,117.28
2023-04-17T06:30:31.822Z,125.05
2023-04-17T06:32:59.151Z,121.20
2023-04-17T06:35:25.787Z,110.90
2023-04-17T06:40:26.188Z,103.93
2023-04-17T06:42:53.127Z,111.68
2023-04-17T06:45:21.665Z,115.00
2023-04-17T06:47:48.935Z,117.20
2023-04-17T06:50:18.538Z,106.18
2023-04-17T06:52:45.936Z,110.50
2023-04-17T06:55:12.598Z,118.45
2023-04-17T06:57:39.924Z,113.70
2023-04-17T07:00:07.247Z,115.88
2023-04-17T07:02:34.668Z,115.00
2023-04-17T07:05:01.549Z,129.50
2023-04-17T07:07:30.932Z,117.65
2023-04-17T07:09:57.601Z,118.63
2023-04-17T07:12:25.003Z,124.63
2023-04-17T07:14:51.607Z,114.75
2023-04-17T07:17:19.764Z,128.48
2023-04-17T07:19:46.656Z,116.40
2023-04-17T07:22:13.546Z,122.35
2023-04-17T07:24:40.218Z,128.25
2023-04-17T07:27:07.740Z,117.18
2023-04-17T07:29:34.557Z,122.97
2023-04-17T07:32:04.155Z,113.25
2023-04-17T07:34:31.868Z,106.95
2023-04-17T07:36:59.202Z,108.60
2023-04-17T07:39:28.508Z,111.80
2023-04-17T07:41:56.482Z,108.13
2023-04-17T07:44:23.168Z,102.40
2023-04-17T07:46:50.537Z,104.65
2023-04-17T07:49:17.455Z,101.13
2023-04-17T07:51:45.132Z,98.70
2023-04-17T07:54:12.042Z,95.32
2023-04-17T07:56:39.723Z,90.15
2023-04-17T07:59:06.361Z,95.47
2023-04-17T08:01:34.066Z,87.45
2023-04-17T08:04:01.172Z,90.30
2023-04-17T08:06:28.831Z,85.60
2023-04-17T08:08:55.565Z,89.85
2023-04-17T08:11:22.822Z,86.97
2023-04-17T08:13:49.734Z,90.85
2023-04-17T08:16:17.337Z,90.93
2023-04-17T08:18:44.140Z,83.65
2023-04-17T08:21:11.474Z,90.30
2023-04-17T08:23:38.093Z,88.32
2023-04-17T08:26:05.349Z,83.72
2023-04-17T08:28:32.099Z,84.07
2023-04-17T08:30:59.666Z,86.18
2023-04-17T08:33:26.955Z,79.95
2023-04-17T08:35:54.379Z,79.60
2023-04-17T08:38:21.214Z,73.13
2023-04-17T08:40:52.327Z,76.03
2023-04-17T08:43:20.859Z,77.40
2023-04-17T08:45:54.032Z,80.85
2023-04-17T08:48:24.700Z,76.72
2023-04-17T08:50:53.486Z,73.47
2023-04-17T08:53:21.036Z,75.35
2023-04-17T08:55:48.826Z,79.10
2023-04-17T08:58:15.872Z,70.70
2023-04-17T09:00:45.324Z,79.95
2023-04-17T09:03:13.219Z,72.00
2023-04-17T09:05:43.481Z,74.53
2023-04-17T09:08:17.229Z,73.65
2023-04-17T09:10:54.095Z,76.13
2023-04-17T09:13:24.772Z,71.55
2023-04-17T09:16:20.327Z,88.35
2023-04-17T09:18:47.795Z,89.93
2023-04-17T09:21:18.215Z,86.43
2023-04-17T09:23:54.339Z,84.03
2023-04-17T09:26:24.219Z,81.28
2023-04-17T09:29:04.247Z,81.00
2023-04-17T09:31:32.426Z,84.03
2023-04-17T09:34:07.257Z,86.07
2023-04-17T09:36:37.092Z,84.18
2023-04-17T09:39:06.232Z,76.65
2023-04-17T09:41:39.416Z,87.00
2023-04-17T09:44:06.228Z,84.63
2023-04-17T09:46:43.038Z,85.00
2023-04-17T09:49:15.680Z,84.10
2023-04-17T09:51:42.972Z,78.88
2023-04-17T09:54:11.339Z,71.05
2023-04-17T09:56:39.270Z,72.72
2023-04-17T09:59:07.166Z,78.97
2023-04-17T10:01:36.472Z,72.35
2023-04-17T10:04:04.619Z,69.03
2023-04-17T10:06:33.279Z,66.95
2023-04-17T10:09:00.412Z,66.00
2023-04-17T10:11:36.293Z,73.72
2023-04-17T10:14:26.271Z,73.60
2023-04-17T10:16:55.011Z,74.53
2023-04-17T10:19:31.099Z,70.72
2023-04-17T10:22:19.846Z,67.68
2023-04-17T10:25:15.599Z,68.03
2023-04-17T10:27:45.619Z,55.15
2023-04-17T10:30:14.021Z,56.72
2023-04-17T10:33:13.357Z,52.42
2023-04-17T10:35:40.836Z,46.40
2023-04-17T10:38:08.638Z,48.78
2023-04-17T10:40:37.326Z,50.42
2023-04-17T10:43:25.100Z,41.58
2023-04-17T10:46:04.056Z,44.65
2023-04-17T10:48:34.670Z,41.28
2023-04-17T10:51:25.129Z,35.22
2023-04-17T10:53:56.836Z,35.40
2023-04-17T10:56:30.905Z,37.27
2023-04-17T10:59:01.797Z,29.77
2023-04-17T11:01:37.698Z,41.45
2023-04-17T11:04:04.908Z,34.15
2023-04-17T11:06:33.344Z,37.33
2023-04-17T11:09:00.392Z,36.88
2023-04-17T11:11:40.482Z,34.53
2023-04-17T11:14:17.511Z,36.63
2023-04-17T11:16:47.481Z,38.53
2023-04-17T11:19:21.172Z,29.10
2023-04-17T11:21:50.501Z,31.23
2023-04-17T11:24:28.314Z,25.50
2023-04-17T11:26:57.962Z,24.50
2023-04-17T11:29:25.148Z,25.00
2023-04-17T11:31:54.785Z,30.98
2023-04-17T11:34:22.256Z,27.60
2023-04-17T11:37:00.433Z,22.55
2023-04-17T11:39:30.410Z,27.13
2023-04-17T11:41:58.132Z,23.00
2023-04-17T11:44:25.669Z,28.02
2023-04-17T11:46:59.183Z,27.90
2023-04-17T11:49:37.371Z,26.55
2023-04-17T11:52:05.891Z,25.02
2023-04-17T11:54:37.641Z,23.15
2023-04-17T11:57:23.167Z,31.53
2023-04-17T11:59:49.854Z,29.38
2023-04-17T12:02:17.290Z,31.05
2023-04-17T12:04:44.164Z,23.05
2023-04-17T12:07:25.960Z,22.52
2023-04-17T12:09:57.554Z,27.83
2023-04-17T12:12:24.804Z,20.45
2023-04-17T12:14:51.396Z,25.88
2023-04-17T12:17:18.750Z,28.17
2023-04-17T12:19:45.474Z,18.73
2023-04-17T12:22:12.883Z,24.25
2023-04-17T12:24:39.572Z,16.55
2023-04-17T12:27:06.873Z,18.42
2023-04-17T12:29:43.872Z,18.30
2023-04-17T12:32:12.413Z,24.55
2023-04-17T12:34:39.339Z,22.45
2023-04-17T12:37:06.592Z,18.60
2023-04-17T12:39:33.298Z,21.52
2023-04-17T12:42:00.535Z,21.17
2023-04-17T12:44:27.276Z,19.60
2023-04-17T12:46:54.721Z,17.17
2023-04-17T12:49:23.363Z,15.82
2023-04-17T12:51:51.615Z,14.07
2023-04-17T12:54:18.466Z,21.25
2023-04-17T12:56:45.429Z,12.05
2023-04-17T12:59:12.055Z,14.38
2023-04-17T13:01:39.307Z,13.68
2023-04-17T13:04:06.264Z,15.82
2023-04-17T13:06:33.865Z,13.52
2023-04-17T13:09:00.528Z,12.15
2023-04-17T13:11:27.771Z,16.52
2023-04-17T13:13:54.359Z,24.17
2023-04-17T13:16:21.733Z,17.30
2023-04-17T13:18:48.365Z,23.98
2023-04-17T13:21:15.583Z,18.67
2023-04-17T13:23:42.177Z,19.48
2023-04-17T13:26:09.427Z,17.10
2023-04-17T13:28:36.039Z,20.23
2023-04-17T13:31:03.350Z,22.33
2023-04-17T13:33:30.031Z,19.30
2023-04-17T13:35:57.328Z,17.52
2023-04-17T13:38:23.901Z,15.25
2023-04-17T13:40:51.328Z,15.88
2023-04-17T13:43:18.000Z,21.27
2023-04-17T13:45:45.282Z,16.75
2023-04-17T13:48:11.930Z,15.10
2023-04-17T13:50:39.364Z,9.52
2023-04-17T13:53:06.026Z,16.40
2023-04-17T13:55:33.320Z,15.18
2023-04-17T13:58:00.968Z,16.27
2023-04-17T14:00:27.923Z,13.98
2023-04-17T14:02:54.662Z,22.42
2023-04-17T14:05:22.145Z,13.50
2023-04-17T14:07:48.766Z,17.63
2023-04-17T14:10:16.008Z,17.52
2023-04-17T14:12:42.630Z,14.05
2023-04-17T14:15:10.448Z,15.75
2023-04-17T14:17:40.869Z,15.50
2023-04-17T14:20:09.412Z,27.70
2023-04-17T14:22:36.484Z,15.25
2023-04-17T14:25:04.158Z,18.88
2023-04-17T14:27:30.806Z,20.00
2023-04-17T14:29:59.977Z,20.20
2023-04-17T14:32:27.893Z,13.88
2023-04-17T14:34:55.854Z,17.02
2023-04-17T14:37:22.539Z,16.60
2023-04-17T14:39:49.840Z,15.55
2023-04-17T14:42:16.552Z,19.98
2023-04-17T14:44:44.300Z,18.00
2023-04-17T14:47:12.893Z,19.13
2023-04-17T14:49:40.378Z,17.42
2023-04-17T14:52:07.031Z,23.88
2023-04-17T14:54:34.534Z,19.17
2023-04-17T14:57:01.436Z,17.65
2023-04-17T14:59:28.910Z,23.17
2023-04-17T15:01:55.713Z,20.85
2023-04-17T15:04:23.231Z,19.75
2023-04-17T15:06:49.900Z,18.33
2023-04-17T15:09:16.884Z,18.70
2023-04-17T15:11:43.590Z,18.67
2023-04-17T15:14:11.277Z,14.90
2023-04-17T15:16:38.001Z,27.23
2023-04-17T15:19:04.597Z,24.65
2023-04-17T15:21:31.256Z,18.50
2023-04-17T15:23:58.577Z,23.20
2023-04-17T15:26:25.638Z,23.00
2023-04-17T15:28:52.253Z,18.67
2023-04-17T15:31:18.911Z,12.82
2023-04-17T15:33:47.578Z,16.33
2023-04-17T15:36:14.462Z,20.83
2023-04-17T15:38:41.677Z,17.80
2023-04-17T15:41:10.158Z,15.27
2023-04-17T15:43:38.148Z,14.32
2023-04-17T15:46:05.335Z,15.35
2023-04-17T15:48:33.001Z,20.48
2023-04-17T15:51:02.302Z,19.45
2023-04-17T15:53:29.619Z,18.42
2023-04-17T15:55:56.400Z,20.00
2023-04-17T15:58:23.687Z,18.65
2023-04-17T16:00:50.462Z,16.20
2023-04-17T16:03:17.794Z,19.08
2023-04-17T16:05:44.646Z,18.13
2023-04-17T16:08:11.592Z,23.58
2023-04-17T16:10:38.248Z,16.05
2023-04-17T16:13:05.350Z,20.45
2023-04-17T16:15:32.666Z,18.50
2023-04-17T16:18:00.233Z,24.38
2023-04-17T16:20:27.692Z,16.02
2023-04-17T16:22:54.341Z,18.35
2023-04-17T16:25:21.313Z,16.30
2023-04-17T16:27:47.911Z,18.67
2023-04-17T16:30:15.170Z,16.70
2023-04-17T16:32:43.159Z,16.40
2023-04-17T16:35:10.340Z,17.05
2023-04-17T16:37:37.304Z,19.23
2023-04-17T16:40:05.307Z,17.40
2023-04-17T16:42:32.728Z,14.82
2023-04-17T16:45:00.512Z,19.80
2023-04-17T16:47:30.837Z,13.27
2023-04-17T16:49:57.984Z,16.75
2023-04-17T16:52:24.857Z,23.50
2023-04-17T16:54:52.152Z,14.75
2023-04-17T16:57:18.750Z,17.77
2023-04-17T16:59:46.107Z,16.95
2023-04-17T17:02:13.740Z,14.68
2023-04-17T17:04:41.186Z,15.40
2023-04-17T17:07:08.004Z,20.00
2023-04-17T17:09:35.326Z,16.02
2023-04-17T17:12:02.017Z,20.65
2023-04-17T17:14:29.333Z,17.75
2023-04-17T17:16:55.984Z,17.73
2023-04-17T17:19:23.301Z,21.85
2023-04-17T17:21:49.904Z,19.48
2023-04-17T17:24:17.130Z,17.33
2023-04-17T17:26:43.743Z,15.52
2023-04-17T17:29:11.276Z,16.55
2023-04-17T17:31:38.239Z,22.17
2023-04-17T17:34:22.635Z,29.30
2023-04-17T17:36:52.659Z,19.67
2023-04-17T17:39:21.409Z,16.48
2023-04-17T17:41:48.375Z,17.02
2023-04-17T17:44:15.798Z,16.00
2023-04-17T17:46:42.685Z,14.60
2023-04-17T17:49:10.274Z,20.02
2023-04-17T17:51:36.927Z,17.85
2023-04-17T17:54:04.275Z,19.92
2023-04-17T17:56:31.075Z,21.23
2023-04-17T17:58:58.436Z,21.15
2023-04-17T18:01:25.380Z,27.80
2023-04-17T18:03:53.687Z,23.15
2023-04-17T18:06:21.106Z,21.83
2023-04-17T18:08:48.320Z,19.60
2023-04-17T18:11:15.793Z,20.23
2023-04-17T18:13:42.458Z,22.75
2023-04-17T18:16:10.106Z,24.10
2023-04-17T18:18:37.034Z,21.98
2023-04-17T18:21:08.342Z,25.98
2023-04-17T18:23:35.522Z,23.95
2023-04-17T18:26:03.292Z,24.13
2023-04-17T18:28:30.925Z,20.10
2023-04-17T18:30:57.749Z,22.27
2023-04-17T18:33:24.792Z,18.08
2023-04-17T18:35:52.195Z,22.85
2023-04-17T18:38:18.895Z,27.33
2023-04-17T18:40:46.171Z,20.65
2023-04-17T18:43:12.858Z,21.10
2023-04-17T18:45:39.803Z,23.52
2023-04-17T18:48:06.507Z,21.92
2023-04-17T18:50:33.799Z,21.15
2023-04-17T18:53:00.590Z,22.77
2023-04-17T18:55:27.191Z,25.52
2023-04-17T18:57:53.782Z,27.92
2023-04-17T19:00:21.138Z,32.45
2023-04-17T19:02:48.062Z,31.85
2023-04-17T19:05:15.409Z,27.27
2023-04-17T19:07:42.071Z,32.38
2023-04-17T19:10:10.083Z,27.52
2023-04-17T19:12:36.799Z,41.05
2023-04-17T19:15:04.660Z,46.30
2023-04-17T19:17:31.379Z,55.78
2023-04-17T19:19:58.358Z,35.88
2023-04-17T19:22:25.061Z,27.27
2023-04-17T19:24:53.147Z,21.95
2023-04-17T19:27:20.281Z,30.35
2023-04-17T19:29:47.382Z,26.75
2023-04-17T19:32:16.309Z,22.98
2023-04-17T19:34:44.182Z,26.77
2023-04-17T19:37:10.908Z,21.05
2023-04-17T19:39:37.847Z,21.20
2023-04-17T19:42:05.429Z,22.08
2023-04-17T19:44:32.586Z,19.20
2023-04-17T19:46:59.316Z,18.90
2023-04-17T19:49:26.632Z,21.58
2023-04-17T19:51:53.276Z,27.17
2023-04-17T19:54:20.583Z,19.63
2023-04-17T19:56:47.365Z,29.92
2023-04-17T19:59:14.750Z,24.75
2023-04-17T20:01:43.810Z,24.85
2023-04-17T20:04:11.064Z,24.92
2023-04-17T20:06:39.368Z,29.02
2023-04-17T20:09:06.863Z,33.05
2023-04-17T20:11:33.901Z,27.73
2023-04-17T20:14:00.930Z,23.05
2023-04-17T20:16:27.627Z,23.85
2023-04-17T20:18:56.868Z,41.72
2023-04-17T20:21:24.012Z,83.85
2023-04-17T20:23:51.343Z,54.00
2023-04-17T20:26:18.258Z,55.80
2023-04-17T20:28:45.416Z,83.80
2023-04-17T20:31:12.131Z,37.85
2023-04-17T20:33:39.301Z,32.42
2023-04-17T20:36:06.071Z,28.40
2023-04-17T20:38:33.445Z,31.30
2023-04-17T20:41:00.173Z,32.67
2023-04-17T20:43:27.103Z,28.13
2023-04-17T20:45:53.748Z,26.35
2023-04-17T20:48:21.558Z,25.60
2023-04-17T20:50:48.196Z,31.35
2023-04-17T20:53:15.427Z,31.80
2023-04-17T20:55:42.126Z,31.02
2023-04-17T20:58:09.685Z,34.45
2023-04-17T21:00:38.464Z,37.33
2023-04-17T21:03:09.098Z,29.33
2023-04-17T21:05:35.821Z,27.88
2023-04-17T21:08:03.057Z,26.38
2023-04-17T21:10:29.670Z,27.05
2023-04-17T21:12:56.724Z,24.77
2023-04-17T21:15:23.325Z,29.48
2023-04-17T21:17:50.334Z,26.80
2023-04-17T21:20:16.974Z,23.92
2023-04-17T21:22:43.593Z,29.48
2023-04-17T21:25:11.091Z,21.27
2023-04-17T21:27:39.305Z,26.30
2023-04-17T21:30:07.973Z,24.80
2023-04-17T21:32:34.816Z,26.25
2023-04-17T21:35:01.448Z,23.27
2023-04-17T21:37:28.727Z,24.63
2023-04-17T21:39:55.709Z,29.25
2023-04-17T21:42:24.591Z,31.25
2023-04-17T21:44:51.293Z,25.63
2023-04-17T21:47:19.756Z,30.38
2023-04-17T21:49:49.702Z,31.75
2023-04-17T21:52:17.114Z,30.77
2023-04-17T21:54:43.812Z,32.80
2023-04-17T21:57:11.185Z,28.77
2023-04-17T21:59:37.871Z,31.60
2023-04-17T22:02:05.199Z,26.25
2023-04-17T22:04:32.004Z,41.35
2023-04-17T22:06:58.989Z,37.35
2023-04-17T22:09:27.741Z,30.85
2023-04-17T22:11:56.671Z,38.50
2023-04-17T22:14:23.327Z,31.52
2023-04-17T22:16:50.742Z,26.75
2023-04-17T22:19:17.367Z,30.98
2023-04-17T22:21:44.594Z,31.75
2023-04-17T22:24:11.481Z,34.30
2023-04-17T22:26:38.530Z,30.90
2023-04-17T22:29:05.217Z,30.60
2023-04-17T22:31:32.541Z,32.55
2023-04-17T22:33:59.364Z,25.33
2023-04-17T22:36:26.600Z,28.52
2023-04-17T22:38:53.163Z,27.35
2023-04-17T22:41:20.487Z,31.27
2023-04-17T22:43:50.227Z,31.92
2023-04-17T22:46:17.503Z,25.48
2023-04-17T22:48:46.986Z,24.55
2023-04-17T22:51:15.212Z,24.88
2023-04-17T22:53:42.433Z,26.20
2023-04-17T22:56:12.115Z,27.73
2023-04-17T22:58:38.893Z,24.55
2023-04-17T23:01:06.109Z,26.98
2023-04-17T23:03:34.035Z,28.58
2023-04-17T23:06:01.045Z,27.40
2023-04-17T23:08:30.156Z,26.13
2023-04-17T23:10:59.956Z,30.67
2023-04-17T23:13:27.780Z,26.83
2023-04-17T23:15:54.811Z,28.90
2023-04-17T23:18:21.724Z,21.50
2023-04-17T23:20:49.238Z,27.88
2023-04-17T23:23:16.343Z,24.65
2023-04-17T23:25:43.643Z,26.52
2023-04-17T23:28:10.390Z,26.38
2023-04-17T23:30:37.709Z,24.20
2023-04-17T23:33:04.441Z,26.25
2023-04-17T23:35:31.491Z,24.33
2023-04-17T23:37:58.081Z,33.58
2023-04-17T23:40:26.127Z,31.08
2023-04-17T23:42:53.530Z,25.95
2023-04-17T23:45:20.821Z,30.85
2023-04-17T23:47:47.661Z,24.38
2023-04-17T23:50:14.681Z,28.55
2023-04-17T23:52:41.315Z,25.85
2023-04-17T23:55:08.862Z,24.00
2023-04-17T23:57:37.706Z,24.13
